Time;durP1;ratioP1;P1;durP2;ratioP2;P2;SDS_P1;SDS_P2;PMS_P1;PMS_P2;Temp;Humidity;BMP_temperature;BMP_pressure;BME280_temperature;BME280_humidity;BME280_pressure;Samples;Min_cycle;Max_cycle;Signal;HPM_P1;HPM_P2
2023/05/14 00:01:08;;;;;;;;;;;12.40;79.70;;;;;;5115658;27;20297;-75
2023/05/14 00:03:35;;;;;;;;;;;12.40;79.70;;;;;;5119590;27;20010;-75
2023/05/14 00:06:03;;;;;;;;;;;12.30;80.00;;;;;;5116193;27;19923;-68
2023/05/14 00:08:32;;;;;;;;;;;12.20;80.10;;;;;;5115771;27;19949;-68
2023/05/14 00:11:03;;;;;;;;;;;12.20;80.20;;;;;;5115800;27;19931;-73
2023/05/14 00:13:30;;;;;;;;;;;12.10;80.20;;;;;;5113958;27;19930;-73
2023/05/14 00:18:42;;;;;;;;;;;12.10;80.50;;;;;;5110872;27;19934;-67
2023/05/14 00:21:09;;;;;;;;;;;12.10;80.60;;;;;;5113577;27;19931;-63
2023/05/14 00:23:35;;;;;;;;;;;12.10;80.50;;;;;;5119200;27;19923;-62
2023/05/14 00:26:04;;;;;;;;;;;12.00;80.50;;;;;;5116611;27;19999;-63
2023/05/14 00:28:30;;;;;;;;;;;12.00;80.60;;;;;;5116107;27;19924;-64
2023/05/14 00:30:57;;;;;;;;;;;12.00;80.60;;;;;;5113401;27;19932;-67
2023/05/14 00:33:24;;;;;;;;;;;12.00;80.50;;;;;;5118735;27;19927;-68
2023/05/14 00:35:51;;;;;;;;;;;12.00;80.50;;;;;;5114901;27;19924;-73
2023/05/14 00:38:18;;;;;;;;;;;11.90;80.60;;;;;;5111707;27;19927;-73
2023/05/14 00:40:50;;;;;;;;;;;11.90;80.70;;;;;;5119369;27;19924;-61
2023/05/14 00:43:18;;;;;;;;;;;11.90;80.90;;;;;;5115233;27;19931;-59
2023/05/14 00:45:45;;;;;;;;;;;11.90;80.80;;;;;;5102402;27;19924;-62
2023/05/14 00:48:13;;;;;;;;;;;11.80;80.90;;;;;;5114848;27;20305;-63
2023/05/14 00:50:39;;;;;;;;;;;11.80;80.90;;;;;;5118970;27;20022;-64
2023/05/14 00:53:09;;;;;;;;;;;11.80;80.80;;;;;;5116194;27;19931;-63
2023/05/14 00:55:36;;;;;;;;;;;11.80;80.80;;;;;;5109935;27;20058;-68
2023/05/14 00:58:04;;;;;;;;;;;11.80;80.80;;;;;;5111350;27;20433;-68
2023/05/14 01:00:32;;;;;;;;;;;11.80;80.70;;;;;;5117475;27;20374;-61
2023/05/14 01:03:00;;;;;;;;;;;11.80;80.80;;;;;;5111142;27;19931;-62
2023/05/14 01:05:29;;;;;;;;;;;11.70;80.80;;;;;;5112686;27;19932;-76
2023/05/14 01:08:00;;;;;;;;;;;11.70;80.70;;;;;;5117777;27;19923;-73
2023/05/14 01:10:29;;;;;;;;;;;11.70;80.60;;;;;;5112493;27;20545;-61
2023/05/14 01:12:59;;;;;;;;;;;11.70;80.50;;;;;;5111966;27;19931;-62
2023/05/14 01:15:28;;;;;;;;;;;11.60;80.70;;;;;;5112083;27;19946;-69
2023/05/14 01:17:59;;;;;;;;;;;11.50;80.90;;;;;;5113231;27;19931;-68
2023/05/14 01:20:26;;;;;;;;;;;11.50;81.00;;;;;;5115486;27;19931;-67
2023/05/14 01:22:54;;;;;;;;;;;11.50;81.10;;;;;;5113715;27;20455;-69
2023/05/14 01:25:21;;;;;;;;;;;11.40;80.90;;;;;;5112357;27;19927;-66
2023/05/14 01:27:50;;;;;;;;;;;11.40;81.00;;;;;;5098394;27;20047;-68
2023/05/14 01:30:19;;;;;;;;;;;11.40;81.00;;;;;;5114370;27;19931;-65
2023/05/14 01:32:48;;;;;;;;;;;11.30;81.10;;;;;;5116853;27;20382;-63
2023/05/14 01:35:15;;;;;;;;;;;11.30;81.20;;;;;;5108807;27;19967;-62
2023/05/14 01:37:43;;;;;;;;;;;11.30;81.20;;;;;;5109740;27;19932;-64
2023/05/14 01:40:14;;;;;;;;;;;11.30;81.10;;;;;;5128899;27;19924;-63
2023/05/14 01:42:41;;;;;;;;;;;11.30;81.00;;;;;;5114908;27;19932;-63
2023/05/14 01:45:08;;;;;;;;;;;11.30;81.00;;;;;;5116955;27;19928;-63
2023/05/14 01:47:35;;;;;;;;;;;11.20;81.00;;;;;;5115234;27;19924;-68
2023/05/14 01:50:01;;;;;;;;;;;11.20;81.00;;;;;;5114906;28;19928;-68
2023/05/14 01:52:28;;;;;;;;;;;11.20;80.90;;;;;;5115923;28;19977;-61
2023/05/14 01:54:57;;;;;;;;;;;11.20;80.90;;;;;;5118471;28;19927;-61
2023/05/14 01:57:25;;;;;;;;;;;11.20;80.90;;;;;;5115614;28;19924;-74
2023/05/14 01:59:52;;;;;;;;;;;11.30;80.70;;;;;;5115289;28;20050;-72
2023/05/14 02:02:19;;;;;;;;;;;11.30;80.80;;;;;;5116146;28;19997;-75
2023/05/14 02:04:45;;;;;;;;;;;11.20;80.90;;;;;;5117563;28;19958;-75
2023/05/14 02:07:12;;;;;;;;;;;11.20;80.90;;;;;;5115592;27;19946;-74
2023/05/14 02:09:42;;;;;;;;;;;11.20;80.90;;;;;;5117694;27;19924;-73
2023/05/14 02:12:09;;;;;;;;;;;11.20;81.00;;;;;;5100964;28;19947;-66
2023/05/14 02:14:38;;;;;;;;;;;11.20;81.20;;;;;;5107915;28;19924;-65
2023/05/14 02:17:05;;;;;;;;;;;11.20;81.20;;;;;;5116640;28;19927;-68
2023/05/14 02:19:32;;;;;;;;;;;11.20;81.20;;;;;;5116491;27;19946;-68
2023/05/14 02:21:58;;;;;;;;;;;11.20;81.20;;;;;;5131201;27;19928;-68
2023/05/14 02:24:25;;;;;;;;;;;11.10;81.20;;;;;;5115624;28;20012;-68
2023/05/14 02:26:52;;;;;;;;;;;11.10;81.20;;;;;;5113961;27;20289;-68
2023/05/14 02:29:19;;;;;;;;;;;11.10;81.20;;;;;;5122253;27;19992;-67
2023/05/14 02:31:47;;;;;;;;;;;11.00;81.20;;;;;;5107657;27;19932;-66
2023/05/14 02:34:14;;;;;;;;;;;11.00;81.20;;;;;;5121257;27;20422;-66
2023/05/14 02:36:40;;;;;;;;;;;11.00;81.20;;;;;;5112438;27;19931;-73
2023/05/14 02:39:07;;;;;;;;;;;11.00;81.10;;;;;;5120680;27;20015;-75
2023/05/14 02:41:34;;;;;;;;;;;11.00;81.00;;;;;;5123555;27;20005;-68
2023/05/14 02:44:00;;;;;;;;;;;11.00;81.00;;;;;;5121019;27;20056;-67
2023/05/14 02:46:27;;;;;;;;;;;11.00;81.10;;;;;;5098951;27;19935;-62
2023/05/14 02:48:56;;;;;;;;;;;10.90;81.10;;;;;;5119592;27;19961;-62
2023/05/14 02:51:23;;;;;;;;;;;10.90;81.10;;;;;;5119966;27;19928;-66
2023/05/14 02:53:50;;;;;;;;;;;10.80;81.20;;;;;;5117562;27;19924;-66
2023/05/14 02:56:17;;;;;;;;;;;10.80;81.30;;;;;;5119163;27;19924;-67
2023/05/14 02:58:43;;;;;;;;;;;10.70;81.20;;;;;;5118890;27;20023;-66
2023/05/14 03:01:10;;;;;;;;;;;10.70;81.40;;;;;;5110862;27;19935;-75
2023/05/14 03:03:37;;;;;;;;;;;10.70;81.40;;;;;;5119998;27;20584;-74
2023/05/14 03:06:05;;;;;;;;;;;10.60;81.50;;;;;;5119231;27;19934;-63
2023/05/14 03:08:32;;;;;;;;;;;10.60;81.40;;;;;;5117911;27;20404;-63
2023/05/14 03:10:59;;;;;;;;;;;10.60;81.40;;;;;;5119763;27;19939;-64
2023/05/14 03:13:26;;;;;;;;;;;10.60;81.40;;;;;;5119059;27;19923;-63
2023/05/14 03:15:53;;;;;;;;;;;10.60;81.50;;;;;;5119152;27;19969;-67
2023/05/14 03:18:20;;;;;;;;;;;10.50;81.50;;;;;;5120096;27;19927;-68
2023/05/14 03:20:47;;;;;;;;;;;10.50;81.30;;;;;;5120825;27;19934;-67
2023/05/14 03:23:15;;;;;;;;;;;10.50;81.40;;;;;;5117911;27;19946;-68
2023/05/14 03:25:42;;;;;;;;;;;10.40;81.50;;;;;;5112536;27;20294;-74
2023/05/14 03:28:08;;;;;;;;;;;10.40;81.60;;;;;;5102614;27;19927;-73
2023/05/14 03:30:35;;;;;;;;;;;10.40;81.60;;;;;;5118419;27;19931;-69
2023/05/14 03:33:03;;;;;;;;;;;10.40;81.50;;;;;;5121897;27;19931;-68
2023/05/14 03:35:30;;;;;;;;;;;10.30;81.60;;;;;;5123775;27;19924;-68
2023/05/14 03:37:58;;;;;;;;;;;10.30;81.70;;;;;;5119195;27;19935;-68
2023/05/14 03:40:29;;;;;;;;;;;10.30;81.60;;;;;;5117084;27;19949;-62
2023/05/14 03:42:56;;;;;;;;;;;10.30;81.70;;;;;;5115669;27;19927;-62
2023/05/14 03:45:23;;;;;;;;;;;10.30;81.60;;;;;;5118397;27;19927;-62
2023/05/14 03:47:50;;;;;;;;;;;10.30;81.60;;;;;;5120327;27;20024;-62
2023/05/14 03:50:17;;;;;;;;;;;10.30;81.60;;;;;;5118841;27;20382;-62
2023/05/14 03:52:44;;;;;;;;;;;10.30;81.60;;;;;;5115595;27;19938;-62
2023/05/14 03:55:11;;;;;;;;;;;10.20;81.70;;;;;;5119978;27;19935;-63
2023/05/14 03:57:40;;;;;;;;;;;10.30;81.70;;;;;;5111864;27;19938;-63
2023/05/14 04:00:07;;;;;;;;;;;10.20;81.80;;;;;;5113079;27;20015;-62
2023/05/14 04:02:43;;;;;;;;;;;10.20;81.70;;;;;;5123399;27;20294;-73
2023/05/14 04:05:10;;;;;;;;;;;10.20;81.80;;;;;;5119095;27;20342;-72
2023/05/14 04:07:36;;;;;;;;;;;10.20;81.80;;;;;;5113807;27;19988;-73
2023/05/14 04:10:04;;;;;;;;;;;10.20;81.70;;;;;;5114942;27;19928;-73
2023/05/14 04:12:31;;;;;;;;;;;10.30;81.80;;;;;;5111106;27;19940;-73
2023/05/14 04:15:00;;;;;;;;;;;10.30;81.80;;;;;;5115508;27;20015;-72
2023/05/14 04:17:27;;;;;;;;;;;10.30;81.80;;;;;;5132332;27;20830;-66
2023/05/14 04:19:54;;;;;;;;;;;10.40;81.60;;;;;;5122096;27;19928;-67
2023/05/14 04:22:21;;;;;;;;;;;10.30;81.70;;;;;;5115802;27;20043;-67
2023/05/14 04:24:47;;;;;;;;;;;10.40;81.70;;;;;;5117159;27;19924;-67
2023/05/14 04:27:14;;;;;;;;;;;10.40;81.60;;;;;;5117894;27;19939;-67
2023/05/14 04:29:41;;;;;;;;;;;10.40;81.60;;;;;;5110522;27;19924;-67
2023/05/14 04:32:11;;;;;;;;;;;10.30;81.90;;;;;;5119389;27;20018;-67
2023/05/14 04:34:37;;;;;;;;;;;10.30;82.10;;;;;;5118936;27;19923;-68
2023/05/14 04:37:05;;;;;;;;;;;10.30;82.20;;;;;;5119061;27;19936;-67
2023/05/14 04:39:32;;;;;;;;;;;10.30;82.10;;;;;;5119544;27;19934;-67
2023/05/14 04:41:59;;;;;;;;;;;10.30;82.20;;;;;;5117803;27;19986;-66
2023/05/14 04:44:26;;;;;;;;;;;10.30;82.50;;;;;;5119494;27;19930;-68
2023/05/14 04:46:53;;;;;;;;;;;10.40;82.40;;;;;;5114332;27;19932;-67
2023/05/14 04:49:21;;;;;;;;;;;10.40;82.20;;;;;;5118024;27;19941;-67
2023/05/14 04:51:48;;;;;;;;;;;10.40;82.10;;;;;;5113836;27;19928;-68
2023/05/14 04:54:15;;;;;;;;;;;10.40;82.00;;;;;;5116811;27;20286;-68
2023/05/14 04:56:42;;;;;;;;;;;10.40;82.00;;;;;;5118270;27;19930;-67
2023/05/14 04:59:08;;;;;;;;;;;10.40;82.10;;;;;;5115035;27;19930;-67
2023/05/14 05:01:35;;;;;;;;;;;10.40;82.30;;;;;;5114426;27;20269;-67
2023/05/14 05:04:02;;;;;;;;;;;10.40;82.40;;;;;;5115155;27;20046;-66
2023/05/14 05:06:30;;;;;;;;;;;10.40;82.60;;;;;;5115517;27;19928;-68
2023/05/14 05:08:57;;;;;;;;;;;10.40;82.80;;;;;;5118869;27;19927;-68
2023/05/14 05:11:23;;;;;;;;;;;10.50;82.80;;;;;;5114266;27;20378;-68
2023/05/14 05:13:50;;;;;;;;;;;10.50;82.60;;;;;;5111162;27;20329;-66
2023/05/14 05:16:17;;;;;;;;;;;10.60;82.50;;;;;;5113881;27;19950;-66
2023/05/14 05:18:44;;;;;;;;;;;10.60;82.70;;;;;;5110955;27;19924;-66
2023/05/14 05:21:11;;;;;;;;;;;10.60;82.70;;;;;;5113677;27;20402;-68
2023/05/14 05:23:39;;;;;;;;;;;10.60;82.90;;;;;;5114766;27;19928;-67
2023/05/14 05:26:06;;;;;;;;;;;10.70;82.60;;;;;;5110192;27;19934;-68
2023/05/14 05:28:32;;;;;;;;;;;10.70;82.40;;;;;;5120040;27;19927;-68
2023/05/14 05:30:59;;;;;;;;;;;10.70;82.60;;;;;;5112730;27;20378;-61
2023/05/14 05:33:26;;;;;;;;;;;10.80;82.60;;;;;;5117188;27;19935;-62
2023/05/14 05:35:53;;;;;;;;;;;10.90;82.70;;;;;;5114884;27;19931;-72
2023/05/14 05:38:19;;;;;;;;;;;10.80;82.80;;;;;;5115529;27;19946;-75
2023/05/14 05:40:47;;;;;;;;;;;10.90;82.70;;;;;;5114724;27;19931;-68
2023/05/14 05:43:14;;;;;;;;;;;10.90;82.80;;;;;;5116908;27;20419;-68
2023/05/14 05:45:41;;;;;;;;;;;10.90;83.00;;;;;;5116633;27;19932;-67
2023/05/14 05:48:08;;;;;;;;;;;11.00;83.10;;;;;;5115922;27;19924;-68
2023/05/14 05:50:34;;;;;;;;;;;11.00;83.20;;;;;;5114290;28;20298;-67
2023/05/14 05:53:01;;;;;;;;;;;11.10;83.40;;;;;;5115238;28;19931;-65
2023/05/14 05:55:28;;;;;;;;;;;11.00;83.30;;;;;;5110680;28;19928;-65
2023/05/14 05:57:56;;;;;;;;;;;11.00;83.50;;;;;;5117779;28;19969;-67
2023/05/14 06:00:23;;;;;;;;;;;11.10;83.60;;;;;;5115031;27;19924;-67
2023/05/14 06:02:52;;;;;;;;;;;11.10;83.70;;;;;;5119799;27;19924;-67
2023/05/14 06:05:19;;;;;;;;;;;11.10;83.70;;;;;;5122178;27;19932;-65
2023/05/14 06:07:45;;;;;;;;;;;11.10;83.70;;;;;;5121770;27;19923;-63
2023/05/14 06:10:12;;;;;;;;;;;11.20;83.60;;;;;;5113785;27;19937;-64
2023/05/14 06:12:39;;;;;;;;;;;11.20;83.80;;;;;;5117510;27;20011;-62
2023/05/14 06:15:08;;;;;;;;;;;11.30;83.60;;;;;;5116514;27;19938;-61
2023/05/14 06:17:34;;;;;;;;;;;11.30;83.80;;;;;;5119201;27;19966;-75
2023/05/14 06:20:01;;;;;;;;;;;11.30;84.20;;;;;;5122303;27;19927;-75
2023/05/14 06:22:28;;;;;;;;;;;11.40;83.90;;;;;;5121582;27;20015;-66
2023/05/14 06:24:54;;;;;;;;;;;11.60;83.80;;;;;;5113669;27;19927;-66
2023/05/14 06:27:21;;;;;;;;;;;11.60;83.60;;;;;;5120110;27;19931;-66
2023/05/14 06:29:48;;;;;;;;;;;11.70;84.10;;;;;;5119569;27;19928;-66
2023/05/14 06:32:17;;;;;;;;;;;11.80;84.30;;;;;;5118951;27;20065;-67
2023/05/14 06:34:43;;;;;;;;;;;11.90;84.10;;;;;;5118387;27;19931;-67
2023/05/14 06:37:11;;;;;;;;;;;12.00;84.00;;;;;;5123261;27;20023;-63
2023/05/14 06:39:38;;;;;;;;;;;12.20;83.70;;;;;;5117253;27;19934;-62
2023/05/14 06:42:05;;;;;;;;;;;12.30;83.80;;;;;;5120535;27;19924;-78
2023/05/14 06:44:32;;;;;;;;;;;12.40;83.90;;;;;;5121512;27;19930;-77
2023/05/14 06:46:59;;;;;;;;;;;12.60;83.40;;;;;;5119287;27;19924;-66
2023/05/14 06:49:27;;;;;;;;;;;12.70;83.30;;;;;;5117551;27;19923;-66
2023/05/14 06:51:54;;;;;;;;;;;12.90;83.00;;;;;;5115905;27;20010;-66
2023/05/14 06:54:21;;;;;;;;;;;13.00;82.80;;;;;;5108847;27;19927;-65
2023/05/14 06:56:49;;;;;;;;;;;13.20;82.70;;;;;;5120024;27;19930;-65
2023/05/14 06:59:17;;;;;;;;;;;13.40;82.20;;;;;;5115960;27;19932;-65
2023/05/14 07:01:44;;;;;;;;;;;13.60;82.30;;;;;;5119852;27;19923;-65
2023/05/14 07:04:11;;;;;;;;;;;13.70;82.10;;;;;;5118626;27;19938;-64
2023/05/14 07:06:39;;;;;;;;;;;13.90;81.70;;;;;;5117627;27;19935;-66
2023/05/14 07:09:06;;;;;;;;;;;14.00;80.80;;;;;;5120759;27;19930;-64
2023/05/14 07:11:33;;;;;;;;;;;14.20;79.70;;;;;;5119307;27;19959;-66
2023/05/14 07:14:00;;;;;;;;;;;14.40;78.80;;;;;;5114071;27;19931;-68
2023/05/14 07:16:26;;;;;;;;;;;14.60;77.70;;;;;;5116832;27;19980;-67
2023/05/14 07:18:53;;;;;;;;;;;14.90;77.20;;;;;;5114568;27;20405;-67
2023/05/14 07:21:20;;;;;;;;;;;15.10;76.60;;;;;;5120054;27;19924;-64
2023/05/14 07:23:48;;;;;;;;;;;15.20;75.50;;;;;;5118931;27;19931;-63
2023/05/14 07:26:14;;;;;;;;;;;15.40;74.60;;;;;;5121563;27;19927;-63
2023/05/14 07:28:41;;;;;;;;;;;15.50;74.20;;;;;;5110312;27;19931;-64
2023/05/14 07:31:08;;;;;;;;;;;15.60;73.90;;;;;;5119666;27;19934;-65
2023/05/14 07:33:35;;;;;;;;;;;15.60;72.50;;;;;;5124057;27;19932;-63
2023/05/14 07:36:02;;;;;;;;;;;15.70;71.30;;;;;;5116990;27;19947;-80
2023/05/14 07:38:29;;;;;;;;;;;15.70;70.50;;;;;;5121934;27;19941;-76
2023/05/14 07:40:57;;;;;;;;;;;15.90;69.90;;;;;;5118395;27;20002;-67
2023/05/14 07:43:23;;;;;;;;;;;16.20;69.50;;;;;;5119490;27;19931;-69
2023/05/14 07:45:50;;;;;;;;;;;16.40;69.30;;;;;;5117075;27;19931;-66
2023/05/14 07:48:17;;;;;;;;;;;16.50;68.60;;;;;;5117778;27;19934;-66
2023/05/14 07:50:44;;;;;;;;;;;16.60;67.40;;;;;;5118258;27;19924;-65
2023/05/14 07:53:10;;;;;;;;;;;16.60;66.80;;;;;;5116611;27;20301;-66
2023/05/14 07:55:37;;;;;;;;;;;16.70;66.50;;;;;;5117645;27;20014;-67
2023/05/14 07:58:05;;;;;;;;;;;16.80;66.30;;;;;;5113015;27;20344;-68
2023/05/14 08:00:32;;;;;;;;;;;16.80;67.10;;;;;;5115747;27;19934;-64
2023/05/14 08:02:59;;;;;;;;;;;16.90;67.00;;;;;;5120182;27;19974;-67
2023/05/14 08:05:26;;;;;;;;;;;16.70;65.70;;;;;;5116150;27;19928;-65
2023/05/14 08:07:52;;;;;;;;;;;16.70;65.50;;;;;;5115828;27;19932;-67
2023/05/14 08:10:22;;;;;;;;;;;16.60;65.50;;;;;;5116196;27;19924;-66
2023/05/14 08:12:48;;;;;;;;;;;16.60;65.80;;;;;;5119852;27;19941;-78
2023/05/14 08:15:17;;;;;;;;;;;16.50;65.30;;;;;;5115686;27;20271;-76
2023/05/14 08:17:43;;;;;;;;;;;16.50;65.20;;;;;;5114044;27;20621;-78
2023/05/14 08:20:11;;;;;;;;;;;16.60;64.70;;;;;;5119902;27;19923;-77
2023/05/14 08:22:38;;;;;;;;;;;16.60;64.70;;;;;;5114299;27;19928;-76
2023/05/14 08:25:05;;;;;;;;;;;16.60;64.30;;;;;;5115165;27;19928;-78
2023/05/14 08:27:32;;;;;;;;;;;16.60;64.70;;;;;;5112450;27;20014;-69
2023/05/14 08:29:58;;;;;;;;;;;16.60;64.30;;;;;;5116539;27;19939;-69
2023/05/14 08:32:27;;;;;;;;;;;16.60;64.20;;;;;;5118403;27;20301;-67
2023/05/14 08:34:53;;;;;;;;;;;16.60;63.50;;;;;;5109964;27;20036;-66
2023/05/14 08:37:20;;;;;;;;;;;16.70;63.30;;;;;;5115964;27;20328;-74
2023/05/14 08:39:47;;;;;;;;;;;16.70;63.20;;;;;;5118458;27;19936;-77
2023/05/14 08:42:15;;;;;;;;;;;16.70;63.70;;;;;;5118216;27;19937;-76
2023/05/14 08:44:47;;;;;;;;;;;16.70;63.70;;;;;;5114593;27;19988;-76
2023/05/14 08:47:15;;;;;;;;;;;16.70;64.00;;;;;;5117700;27;19932;-69
2023/05/14 08:49:46;;;;;;;;;;;16.70;63.70;;;;;;5119646;27;20381;-69
2023/05/14 08:52:13;;;;;;;;;;;16.70;63.40;;;;;;5114446;27;21491;-63
2023/05/14 08:54:40;;;;;;;;;;;16.70;63.40;;;;;;5112424;27;19931;-64
2023/05/14 08:57:09;;;;;;;;;;;16.70;63.90;;;;;;5114708;27;19942;-63
2023/05/14 08:59:35;;;;;;;;;;;16.70;63.70;;;;;;5116586;27;20799;-62
2023/05/14 09:02:05;;;;;;;;;;;16.80;63.30;;;;;;5114518;27;19981;-66
2023/05/14 09:04:32;;;;;;;;;;;16.80;64.00;;;;;;5114864;27;19923;-67
2023/05/14 09:07:01;;;;;;;;;;;16.90;63.90;;;;;;5115199;27;19931;-69
2023/05/14 09:09:28;;;;;;;;;;;17.10;63.70;;;;;;5116139;27;19931;-68
2023/05/14 09:11:55;;;;;;;;;;;17.10;63.50;;;;;;5117657;27;19928;-76
2023/05/14 09:14:22;;;;;;;;;;;17.10;63.50;;;;;;5112166;27;19934;-77
2023/05/14 09:16:49;;;;;;;;;;;17.10;63.00;;;;;;5115194;27;19934;-74
2023/05/14 09:19:17;;;;;;;;;;;17.10;63.10;;;;;;5114751;27;20396;-71
2023/05/14 09:21:44;;;;;;;;;;;17.10;63.20;;;;;;5117990;27;20395;-70
2023/05/14 09:24:18;;;;;;;;;;;17.20;62.90;;;;;;5115101;27;19930;-69
2023/05/14 09:26:45;;;;;;;;;;;17.20;63.00;;;;;;5118463;27;19934;-72
2023/05/14 09:29:11;;;;;;;;;;;17.30;62.90;;;;;;5120629;27;20009;-75
2023/05/14 09:31:38;;;;;;;;;;;17.30;62.60;;;;;;5112283;27;19938;-74
2023/05/14 09:34:05;;;;;;;;;;;17.50;63.40;;;;;;5114391;27;20727;-72
2023/05/14 09:36:33;;;;;;;;;;;17.60;63.10;;;;;;5111287;27;20259;-74
2023/05/14 09:39:03;;;;;;;;;;;17.80;62.90;;;;;;5115790;27;19972;-74
2023/05/14 09:41:31;;;;;;;;;;;17.80;62.80;;;;;;5115930;27;19991;-64
2023/05/14 09:44:00;;;;;;;;;;;17.80;62.70;;;;;;5118157;27;19932;-64
2023/05/14 09:46:30;;;;;;;;;;;17.80;62.10;;;;;;5111977;27;20054;-72
2023/05/14 09:48:58;;;;;;;;;;;18.00;61.90;;;;;;5114652;27;20372;-73
2023/05/14 09:51:25;;;;;;;;;;;18.10;62.30;;;;;;5116870;28;20259;-65
2023/05/14 09:53:53;;;;;;;;;;;18.20;61.60;;;;;;5115203;28;20379;-62
2023/05/14 09:56:20;;;;;;;;;;;18.20;60.50;;;;;;5114834;28;20550;-77
2023/05/14 09:58:48;;;;;;;;;;;18.20;60.20;;;;;;5118663;28;19924;-76
2023/05/14 10:01:18;;;;;;;;;;;18.20;60.90;;;;;;5116795;28;20007;-68
2023/05/14 10:03:44;;;;;;;;;;;18.20;60.40;;;;;;5111722;28;19923;-69
2023/05/14 10:06:13;;;;;;;;;;;18.20;60.50;;;;;;5115510;28;19923;-63
2023/05/14 10:08:41;;;;;;;;;;;18.20;60.70;;;;;;5114014;28;20404;-63
2023/05/14 10:11:10;;;;;;;;;;;18.20;60.60;;;;;;5114111;28;19944;-67
2023/05/14 10:13:39;;;;;;;;;;;18.10;60.70;;;;;;5121390;28;19928;-67
2023/05/14 10:16:08;;;;;;;;;;;18.10;60.80;;;;;;5116362;27;20374;-66
2023/05/14 10:18:39;;;;;;;;;;;18.10;60.80;;;;;;5114823;28;19967;-66
2023/05/14 10:21:07;;;;;;;;;;;18.10;60.90;;;;;;5119033;28;19923;-66
2023/05/14 10:23:36;;;;;;;;;;;18.10;60.90;;;;;;5115748;27;19939;-67
2023/05/14 10:26:03;;;;;;;;;;;18.00;61.30;;;;;;5113480;28;19930;-68
2023/05/14 10:28:30;;;;;;;;;;;18.00;61.00;;;;;;5112728;27;19946;-68
2023/05/14 10:30:57;;;;;;;;;;;18.00;59.70;;;;;;5116590;28;19923;-67
2023/05/14 10:33:25;;;;;;;;;;;18.10;59.60;;;;;;5117212;28;19931;-66
2023/05/14 10:35:55;;;;;;;;;;;18.10;60.30;;;;;;5118736;27;19928;-68
2023/05/14 10:38:22;;;;;;;;;;;18.20;60.10;;;;;;5118064;28;20674;-67
2023/05/14 10:40:49;;;;;;;;;;;18.20;60.30;;;;;;5119655;28;19927;-73
2023/05/14 10:43:17;;;;;;;;;;;18.20;60.30;;;;;;5118932;28;19934;-72
2023/05/14 10:45:47;;;;;;;;;;;18.40;59.70;;;;;;5116058;28;20918;-67
2023/05/14 10:48:14;;;;;;;;;;;18.40;60.10;;;;;;5117146;27;19934;-66
2023/05/14 10:50:43;;;;;;;;;;;18.40;60.10;;;;;;5120897;27;19929;-62
2023/05/14 10:53:11;;;;;;;;;;;18.40;60.30;;;;;;5117184;27;20015;-61
2023/05/14 10:55:38;;;;;;;;;;;18.30;60.10;;;;;;5122028;27;19924;-63
2023/05/14 10:58:05;;;;;;;;;;;18.30;60.10;;;;;;5116820;27;19932;-62
2023/05/14 11:00:33;;;;;;;;;;;18.30;59.90;;;;;;5120089;27;20090;-77
2023/05/14 11:03:00;;;;;;;;;;;18.30;60.20;;;;;;5121413;27;19985;-75
2023/05/14 11:05:27;;;;;;;;;;;18.20;60.00;;;;;;5118317;27;19928;-73
2023/05/14 11:07:56;;;;;;;;;;;18.20;60.20;;;;;;5109497;27;19959;-73
2023/05/14 11:10:24;;;;;;;;;;;18.20;59.90;;;;;;5123483;27;19924;-73
2023/05/14 11:12:51;;;;;;;;;;;18.30;60.30;;;;;;5116208;27;20422;-73
2023/05/14 11:15:19;;;;;;;;;;;18.30;60.10;;;;;;5118140;27;19930;-72
2023/05/14 11:17:47;;;;;;;;;;;18.30;59.90;;;;;;5118663;27;19927;-72
2023/05/14 11:20:14;;;;;;;;;;;18.40;60.10;;;;;;5113996;27;20565;-73
2023/05/14 11:22:41;;;;;;;;;;;18.40;60.30;;;;;;5113907;27;19935;-71
2023/05/14 11:25:13;;;;;;;;;;;18.40;60.30;;;;;;5116930;27;20031;-72
2023/05/14 11:27:40;;;;;;;;;;;18.40;60.20;;;;;;5116396;27;19977;-70
2023/05/14 11:30:12;;;;;;;;;;;18.50;60.20;;;;;;5117100;27;19976;-69
2023/05/14 11:32:39;;;;;;;;;;;18.50;60.50;;;;;;5122448;27;19951;-69
2023/05/14 11:35:06;;;;;;;;;;;18.50;60.20;;;;;;5115648;27;19932;-67
2023/05/14 11:37:33;;;;;;;;;;;18.60;60.10;;;;;;5117809;27;19923;-68
2023/05/14 11:40:00;;;;;;;;;;;18.60;60.30;;;;;;5117885;27;19930;-70
2023/05/14 11:42:28;;;;;;;;;;;18.70;59.90;;;;;;5117822;27;19934;-67
2023/05/14 11:44:55;;;;;;;;;;;19.00;59.90;;;;;;5119007;27;19931;-68
2023/05/14 11:47:22;;;;;;;;;;;19.10;59.00;;;;;;5118863;27;19928;-66
2023/05/14 11:49:49;;;;;;;;;;;19.20;59.20;;;;;;5116502;27;19934;-67
2023/05/14 11:52:18;;;;;;;;;;;19.30;59.30;;;;;;5115254;27;19945;-70
2023/05/14 11:54:44;;;;;;;;;;;19.50;59.40;;;;;;5114841;27;20392;-69
2023/05/14 11:57:12;;;;;;;;;;;19.60;59.20;;;;;;5121619;27;19979;-77
2023/05/14 11:59:40;;;;;;;;;;;19.60;58.60;;;;;;5120562;27;19934;-77
2023/05/14 12:02:10;;;;;;;;;;;19.70;58.40;;;;;;5113194;27;20637;-74
2023/05/14 12:04:36;;;;;;;;;;;19.80;58.50;;;;;;5116223;27;19923;-74
2023/05/14 12:07:07;;;;;;;;;;;19.90;58.90;;;;;;5114646;27;19942;-66
2023/05/14 12:09:36;;;;;;;;;;;20.00;59.40;;;;;;5110895;27;19932;-67
2023/05/14 12:12:07;;;;;;;;;;;20.10;60.40;;;;;;5116813;27;19923;-66
2023/05/14 12:14:36;;;;;;;;;;;20.20;59.70;;;;;;5115949;27;19993;-66
2023/05/14 12:17:09;;;;;;;;;;;20.30;58.70;;;;;;5118465;27;19950;-68
2023/05/14 12:19:39;;;;;;;;;;;20.30;58.40;;;;;;5118487;27;19927;-69
2023/05/14 12:22:06;;;;;;;;;;;20.50;58.20;;;;;;5106821;27;19939;-66
2023/05/14 12:24:32;;;;;;;;;;;20.60;58.10;;;;;;5118413;27;19928;-65
2023/05/14 12:27:00;;;;;;;;;;;20.60;57.00;;;;;;5110605;27;20076;-66
2023/05/14 12:29:27;;;;;;;;;;;20.60;57.30;;;;;;5112037;27;20024;-64
2023/05/14 12:31:57;;;;;;;;;;;20.50;56.40;;;;;;5117839;27;19946;-64
2023/05/14 12:34:25;;;;;;;;;;;20.50;55.30;;;;;;5115939;27;19931;-63
2023/05/14 12:36:52;;;;;;;;;;;20.40;56.10;;;;;;5103547;27;19939;-64
2023/05/14 12:39:18;;;;;;;;;;;20.40;55.00;;;;;;5107343;27;20028;-64
2023/05/14 12:41:45;;;;;;;;;;;20.40;55.00;;;;;;5108527;27;19932;-64
2023/05/14 12:44:12;;;;;;;;;;;20.30;54.90;;;;;;5110651;27;19969;-62
2023/05/14 12:46:39;;;;;;;;;;;20.20;55.20;;;;;;5109459;27;19932;-70
2023/05/14 12:49:06;;;;;;;;;;;20.20;54.60;;;;;;5111162;27;19935;-68
2023/05/14 12:51:34;;;;;;;;;;;20.30;54.30;;;;;;5115587;27;19993;-67
2023/05/14 12:54:00;;;;;;;;;;;20.30;54.90;;;;;;5110864;27;19924;-66
2023/05/14 12:56:36;;;;;;;;;;;20.50;53.80;;;;;;5113449;27;19928;-70
2023/05/14 12:59:08;;;;;;;;;;;20.60;53.60;;;;;;5113057;27;20152;-70
2023/05/14 13:01:43;;;;;;;;;;;20.40;54.10;;;;;;5110553;27;19935;-69
2023/05/14 13:04:12;;;;;;;;;;;20.40;53.50;;;;;;5112399;27;19931;-70
2023/05/14 13:06:53;;;;;;;;;;;20.40;52.70;;;;;;5114096;27;19935;-69
2023/05/14 13:09:32;;;;;;;;;;;20.40;53.00;;;;;;5098088;27;20340;-69
2023/05/14 13:11:59;;;;;;;;;;;20.50;53.70;;;;;;5111426;27;19930;-68
2023/05/14 13:14:26;;;;;;;;;;;20.50;53.00;;;;;;5108018;27;19931;-68
2023/05/14 13:16:52;;;;;;;;;;;20.60;53.00;;;;;;5114036;27;19928;-68
2023/05/14 13:19:19;;;;;;;;;;;20.60;53.00;;;;;;5114147;27;24368;-69
2023/05/14 13:21:47;;;;;;;;;;;20.60;52.50;;;;;;5109701;27;20896;-69
2023/05/14 13:24:15;;;;;;;;;;;20.60;52.80;;;;;;5115828;27;19928;-68
2023/05/14 13:26:43;;;;;;;;;;;20.60;52.90;;;;;;5112776;27;20342;-64
2023/05/14 13:29:10;;;;;;;;;;;20.60;53.10;;;;;;5115821;27;19934;-63
2023/05/14 13:31:36;;;;;;;;;;;20.60;54.10;;;;;;5116101;27;20034;-64
2023/05/14 13:34:03;;;;;;;;;;;20.60;55.00;;;;;;5110659;27;19930;-65
2023/05/14 13:36:31;;;;;;;;;;;20.50;55.20;;;;;;5115445;27;20374;-65
2023/05/14 13:38:59;;;;;;;;;;;20.60;53.40;;;;;;5112027;27;20401;-64
2023/05/14 13:41:26;;;;;;;;;;;20.60;52.80;;;;;;5116310;27;19988;-63
2023/05/14 13:43:52;;;;;;;;;;;20.60;53.40;;;;;;5115992;27;20023;-62
2023/05/14 13:46:20;;;;;;;;;;;20.60;53.20;;;;;;5115420;27;20273;-64
2023/05/14 13:48:46;;;;;;;;;;;20.60;51.90;;;;;;5117414;27;19967;-63
2023/05/14 13:51:13;;;;;;;;;;;20.60;51.50;;;;;;5111838;27;19941;-63
2023/05/14 13:53:40;;;;;;;;;;;20.60;50.90;;;;;;5116799;28;19936;-63
2023/05/14 13:56:08;;;;;;;;;;;20.60;52.50;;;;;;5115690;28;20035;-66
2023/05/14 13:58:35;;;;;;;;;;;20.70;52.00;;;;;;5116163;28;19959;-65
2023/05/14 14:01:01;;;;;;;;;;;20.70;51.10;;;;;;5115838;28;19924;-66
2023/05/14 14:03:28;;;;;;;;;;;20.70;50.10;;;;;;5112942;28;19947;-66
2023/05/14 14:05:55;;;;;;;;;;;20.80;49.80;;;;;;5107999;28;19928;-69
2023/05/14 14:08:22;;;;;;;;;;;20.90;49.90;;;;;;5110905;28;19927;-70
2023/05/14 14:10:49;;;;;;;;;;;21.00;50.90;;;;;;5115268;28;19960;-70
2023/05/14 14:13:17;;;;;;;;;;;21.00;50.60;;;;;;5116394;28;19931;-70
2023/05/14 14:15:44;;;;;;;;;;;21.00;50.90;;;;;;5118087;28;19923;-67
2023/05/14 14:18:10;;;;;;;;;;;20.80;51.80;;;;;;5113403;27;19996;-69
2023/05/14 14:20:38;;;;;;;;;;;20.70;52.70;;;;;;5113145;28;19950;-62